createdAt,value
2022-12-29T00:02:10.224Z,77.35
2022-12-29T00:04:42.612Z,77.86
2022-12-29T00:07:14.492Z,77.60
2022-12-29T00:09:46.437Z,77.70
2022-12-29T00:12:18.468Z,77.42
2022-12-29T00:15:07.866Z,77.40
2022-12-29T00:17:39.860Z,77.42
2022-12-29T00:20:29.300Z,77.05
2022-12-29T00:23:19.147Z,77.20
2022-12-29T00:26:08.625Z,76.86
2022-12-29T00:28:58.138Z,77.09
2022-12-29T00:31:47.745Z,76.41
2022-12-29T00:34:37.519Z,75.62
2022-12-29T00:37:09.526Z,76.00
2022-12-29T00:39:58.949Z,75.15
2022-12-29T00:42:49.044Z,75.59
2022-12-29T00:45:21.031Z,75.38
2022-12-29T00:47:53.283Z,74.60
2022-12-29T00:50:25.506Z,75.29
2022-12-29T00:52:57.626Z,75.38
2022-12-29T00:55:29.538Z,75.75
2022-12-29T00:58:01.724Z,75.63
2022-12-29T01:00:33.831Z,75.91
2022-12-29T01:03:06.422Z,75.70
2022-12-29T01:05:41.338Z,75.65
2022-12-29T01:08:13.326Z,76.00
2022-12-29T01:10:45.161Z,75.32
2022-12-29T01:13:17.210Z,75.35
2022-12-29T01:15:53.888Z,75.58
2022-12-29T01:18:27.744Z,75.69
2022-12-29T01:21:04.795Z,75.78
2022-12-29T01:23:36.789Z,75.57
2022-12-29T01:26:17.960Z,75.13
2022-12-29T01:28:50.134Z,73.49
2022-12-29T01:31:22.625Z,73.30
2022-12-29T01:33:54.541Z,72.78
2022-12-29T01:36:27.000Z,73.38
2022-12-29T01:38:59.219Z,72.59
2022-12-29T01:41:32.562Z,71.68
2022-12-29T01:44:25.256Z,72.35
2022-12-29T01:46:57.760Z,71.68
2022-12-29T01:49:30.510Z,71.49
2022-12-29T01:52:05.623Z,71.97
2022-12-29T01:54:40.452Z,71.87
2022-12-29T01:57:15.251Z,72.45
2022-12-29T01:59:50.453Z,73.19
2022-12-29T02:02:22.864Z,73.00
2022-12-29T02:05:00.129Z,72.25
2022-12-29T02:07:30.999Z,72.24
2022-12-29T02:10:05.092Z,72.81
2022-12-29T02:12:36.391Z,73.16
2022-12-29T02:15:09.143Z,72.70
2022-12-29T02:18:00.122Z,72.75
2022-12-29T02:20:56.048Z,73.15
2022-12-29T02:23:33.712Z,73.29
2022-12-29T02:26:41.439Z,73.58
2022-12-29T02:29:49.087Z,73.57
2022-12-29T02:32:24.059Z,73.69
2022-12-29T02:35:07.801Z,73.78
2022-12-29T02:38:03.560Z,73.26
2022-12-29T02:40:41.041Z,73.80
2022-12-29T02:43:27.498Z,73.77
2022-12-29T02:46:02.916Z,74.04
2022-12-29T02:48:49.621Z,73.12
2022-12-29T02:51:27.349Z,73.45
2022-12-29T02:54:17.572Z,72.97
2022-12-29T02:56:51.306Z,73.77
2022-12-29T02:59:24.532Z,73.53
2022-12-29T03:02:23.563Z,74.22
2022-12-29T03:05:17.450Z,73.97
2022-12-29T03:07:59.203Z,74.07
2022-12-29T03:10:40.054Z,73.92
2022-12-29T03:13:32.449Z,73.91
2022-12-29T03:16:10.108Z,73.19
2022-12-29T03:19:02.436Z,73.69
2022-12-29T03:22:03.938Z,74.25
2022-12-29T03:24:40.780Z,73.41
2022-12-29T03:27:16.461Z,73.33
2022-12-29T03:29:55.890Z,73.62
2022-12-29T03:32:33.937Z,73.87
2022-12-29T03:35:07.743Z,73.61
2022-12-29T03:37:47.024Z,74.06
2022-12-29T03:40:20.962Z,74.14
2022-12-29T03:42:54.832Z,74.71
2022-12-29T03:45:27.714Z,75.19
2022-12-29T03:47:59.714Z,74.55
2022-12-29T03:50:33.146Z,74.75
2022-12-29T03:53:05.249Z,74.84
2022-12-29T03:55:37.327Z,74.83
2022-12-29T03:58:09.281Z,74.73
2022-12-29T04:00:58.728Z,73.86
2022-12-29T04:03:31.491Z,74.10
2022-12-29T04:06:04.285Z,74.04
2022-12-29T04:08:37.961Z,73.06
2022-12-29T04:11:11.116Z,73.73
2022-12-29T04:13:44.399Z,73.55
2022-12-29T04:16:18.410Z,73.99
2022-12-29T04:18:50.694Z,73.84
2022-12-29T04:21:22.680Z,73.94
2022-12-29T04:23:54.811Z,74.65
2022-12-29T04:26:27.014Z,74.12
2022-12-29T04:29:00.708Z,74.32
2022-12-29T04:31:47.017Z,74.28
2022-12-29T04:34:19.158Z,73.95
2022-12-29T04:36:52.564Z,74.22
2022-12-29T04:39:24.831Z,74.25
2022-12-29T04:41:57.799Z,74.72
2022-12-29T04:44:30.830Z,75.04
2022-12-29T04:47:14.554Z,74.21
2022-12-29T04:49:54.129Z,74.47
2022-12-29T04:52:27.832Z,74.64
2022-12-29T04:55:00.346Z,74.33
2022-12-29T04:57:33.196Z,74.91
2022-12-29T05:00:07.996Z,75.36
2022-12-29T05:02:41.705Z,75.00
2022-12-29T05:05:14.944Z,73.62
2022-12-29T05:07:49.788Z,73.85
2022-12-29T05:10:22.163Z,74.10
2022-12-29T05:12:56.414Z,74.23
2022-12-29T05:15:28.697Z,74.25
2022-12-29T05:18:01.122Z,74.16
2022-12-29T05:20:34.808Z,74.35
2022-12-29T05:23:08.603Z,74.48
2022-12-29T05:25:41.565Z,74.68
2022-12-29T05:28:15.174Z,75.44
2022-12-29T05:30:53.498Z,75.16
2022-12-29T05:33:26.222Z,75.05
2022-12-29T05:35:58.426Z,75.30
2022-12-29T05:38:30.983Z,75.66
2022-12-29T05:41:04.660Z,75.52
2022-12-29T05:43:54.877Z,75.74
2022-12-29T05:46:38.034Z,75.05
2022-12-29T05:49:14.474Z,74.37
2022-12-29T05:52:06.564Z,74.48
2022-12-29T05:54:39.668Z,73.23
2022-12-29T05:57:14.001Z,73.34
2022-12-29T05:59:47.295Z,73.74
2022-12-29T06:02:20.070Z,73.61
2022-12-29T06:04:52.872Z,73.45
2022-12-29T06:07:25.606Z,74.01
2022-12-29T06:09:58.346Z,74.49
2022-12-29T06:12:33.171Z,75.10
2022-12-29T06:15:06.020Z,75.11
2022-12-29T06:17:38.335Z,74.87
2022-12-29T06:20:12.184Z,74.90
2022-12-29T06:22:44.603Z,74.93
2022-12-29T06:25:18.344Z,75.17
2022-12-29T06:27:50.287Z,75.85
2022-12-29T06:30:22.375Z,75.92
2022-12-29T06:32:55.854Z,75.53
2022-12-29T06:35:29.949Z,75.87
2022-12-29T06:38:02.057Z,75.55
2022-12-29T06:40:36.265Z,74.67
2022-12-29T06:43:10.878Z,74.68
2022-12-29T06:45:45.981Z,75.15
2022-12-29T06:48:18.642Z,75.65
2022-12-29T06:50:50.847Z,75.87
2022-12-29T06:53:23.211Z,74.80
2022-12-29T06:55:55.745Z,74.45
2022-12-29T06:58:27.896Z,74.26
2022-12-29T07:01:01.367Z,74.00
2022-12-29T07:03:33.855Z,74.52
2022-12-29T07:06:07.153Z,74.41
2022-12-29T07:08:40.085Z,74.78
2022-12-29T07:11:12.807Z,74.36
2022-12-29T07:13:45.096Z,74.79
2022-12-29T07:16:17.972Z,74.49
2022-12-29T07:18:50.608Z,74.17
2022-12-29T07:21:23.475Z,74.18
2022-12-29T07:23:56.508Z,74.31
2022-12-29T07:26:34.410Z,74.55
2022-12-29T07:29:04.398Z,74.79
2022-12-29T07:31:36.478Z,74.56
2022-12-29T07:34:10.252Z,74.21
2022-12-29T07:36:42.514Z,73.69
2022-12-29T07:39:14.977Z,73.38
2022-12-29T07:41:47.020Z,73.34
2022-12-29T07:44:20.853Z,73.09
2022-12-29T07:47:00.644Z,73.43
2022-12-29T07:49:32.743Z,73.07
2022-12-29T07:52:05.255Z,73.18
2022-12-29T07:54:37.572Z,73.13
2022-12-29T07:57:10.208Z,73.48
2022-12-29T07:59:42.820Z,73.40
2022-12-29T08:02:15.532Z,72.36
2022-12-29T08:04:47.892Z,72.67
2022-12-29T08:07:19.934Z,72.34
2022-12-29T08:09:52.064Z,72.33
2022-12-29T08:12:24.652Z,72.30
2022-12-29T08:14:57.218Z,73.18
2022-12-29T08:17:29.777Z,72.81
2022-12-29T08:20:02.561Z,73.34
2022-12-29T08:22:35.906Z,72.84
2022-12-29T08:25:08.658Z,73.16
2022-12-29T08:27:40.915Z,72.15
2022-12-29T08:30:13.803Z,71.89
2022-12-29T08:32:46.210Z,71.26
2022-12-29T08:35:18.621Z,69.95
2022-12-29T08:37:51.748Z,70.07
2022-12-29T08:40:25.699Z,70.73
2022-12-29T08:42:57.805Z,70.94
2022-12-29T08:45:30.291Z,71.50
2022-12-29T08:48:02.731Z,70.90
2022-12-29T08:50:34.761Z,70.60
2022-12-29T08:53:07.576Z,70.66
2022-12-29T08:55:40.000Z,70.50
2022-12-29T08:58:13.960Z,71.00
2022-12-29T09:00:47.859Z,70.83
2022-12-29T09:03:37.756Z,71.13
2022-12-29T09:05:55.127Z,70.76
2022-12-29T09:08:27.660Z,70.82
2022-12-29T09:11:11.429Z,70.86
2022-12-29T09:13:43.908Z,69.50
2022-12-29T09:16:16.620Z,69.31
2022-12-29T09:18:49.259Z,68.08
2022-12-29T09:21:21.678Z,69.10
2022-12-29T09:23:53.742Z,69.80
2022-12-29T09:26:26.190Z,70.07
2022-12-29T09:28:58.747Z,70.27
2022-12-29T09:31:31.403Z,70.57
2022-12-29T09:34:04.045Z,69.97
2022-12-29T09:36:36.069Z,70.15
2022-12-29T09:39:08.462Z,70.20
2022-12-29T09:41:49.036Z,69.84
2022-12-29T09:44:24.129Z,69.55
2022-12-29T09:46:59.133Z,69.51
2022-12-29T09:49:44.152Z,69.16
2022-12-29T09:52:26.484Z,69.27
2022-12-29T09:55:13.528Z,68.61
2022-12-29T09:57:50.949Z,68.07
2022-12-29T10:00:25.588Z,68.38
2022-12-29T10:03:03.936Z,67.63
2022-12-29T10:05:56.377Z,68.32
2022-12-29T10:08:46.100Z,69.09
2022-12-29T10:11:39.640Z,68.74
2022-12-29T10:14:37.045Z,69.74
2022-12-29T10:17:34.371Z,69.35
2022-12-29T10:20:09.460Z,68.28
2022-12-29T10:23:05.271Z,69.24
2022-12-29T10:25:42.469Z,69.55
2022-12-29T10:28:23.416Z,70.00
2022-12-29T10:31:03.521Z,70.01
2022-12-29T10:33:35.738Z,69.99
2022-12-29T10:36:19.627Z,70.50
2022-12-29T10:38:54.944Z,70.56
2022-12-29T10:41:30.029Z,70.45
2022-12-29T10:44:03.928Z,70.15
2022-12-29T10:46:37.293Z,70.04
2022-12-29T10:49:21.290Z,70.55
2022-12-29T10:51:53.306Z,69.96
2022-12-29T10:54:34.074Z,69.99
2022-12-29T10:57:14.722Z,70.03
2022-12-29T10:59:47.415Z,69.66
2022-12-29T11:02:38.766Z,70.23
2022-12-29T11:05:20.331Z,70.08
2022-12-29T11:07:56.038Z,70.11
2022-12-29T11:10:41.938Z,69.37
2022-12-29T11:13:22.388Z,70.17
2022-12-29T11:15:54.940Z,70.18
2022-12-29T11:18:39.135Z,69.74
2022-12-29T11:21:32.020Z,69.45
2022-12-29T11:24:06.772Z,68.92
2022-12-29T11:26:38.857Z,69.64
2022-12-29T11:29:19.488Z,69.47
2022-12-29T11:32:00.997Z,69.32
2022-12-29T11:34:36.147Z,70.05
2022-12-29T11:37:17.329Z,70.57
2022-12-29T11:40:08.728Z,70.44
2022-12-29T11:42:45.345Z,70.44
2022-12-29T11:45:30.096Z,70.17
2022-12-29T11:48:05.096Z,70.45
2022-12-29T11:50:40.192Z,70.30
2022-12-29T11:53:25.029Z,70.34
2022-12-29T11:56:00.039Z,70.80
2022-12-29T11:58:34.731Z,70.60
2022-12-29T12:01:22.182Z,70.76
2022-12-29T12:04:06.387Z,70.77
2022-12-29T12:06:47.755Z,70.72
2022-12-29T12:09:34.925Z,71.01
2022-12-29T12:12:09.793Z,71.25
2022-12-29T12:14:59.693Z,71.64
2022-12-29T12:17:48.323Z,70.84
2022-12-29T12:20:29.123Z,70.76
2022-12-29T12:23:04.647Z,71.00
2022-12-29T12:26:11.779Z,70.93
2022-12-29T12:28:52.651Z,70.98
2022-12-29T12:31:49.856Z,71.22
2022-12-29T12:34:27.771Z,71.18
2022-12-29T12:37:08.901Z,71.70
2022-12-29T12:39:50.055Z,71.41
2022-12-29T12:42:28.132Z,71.73
2022-12-29T12:45:17.811Z,71.69
2022-12-29T12:48:11.093Z,71.69
2022-12-29T12:50:54.854Z,71.88
2022-12-29T12:53:41.913Z,71.88
2022-12-29T12:56:22.727Z,72.13
2022-12-29T12:59:18.631Z,72.02
2022-12-29T13:02:06.239Z,72.12
2022-12-29T13:04:41.359Z,72.58
2022-12-29T13:07:19.233Z,72.71
2022-12-29T13:10:21.715Z,72.95
2022-12-29T13:13:17.709Z,73.18
2022-12-29T13:16:07.427Z,73.00
2022-12-29T13:18:41.640Z,73.31
2022-12-29T13:21:31.563Z,73.67
2022-12-29T13:24:06.712Z,73.76
2022-12-29T13:26:47.609Z,73.84
2022-12-29T13:29:40.288Z,74.15
2022-12-29T13:32:24.386Z,74.19
2022-12-29T13:35:08.081Z,73.64
2022-12-29T13:37:43.559Z,73.86
2022-12-29T13:40:20.057Z,74.27
2022-12-29T13:42:54.681Z,74.42
2022-12-29T13:45:29.310Z,74.59
2022-12-29T13:48:14.039Z,74.92
2022-12-29T13:50:49.180Z,74.69
2022-12-29T13:53:24.728Z,74.95
2022-12-29T13:56:11.683Z,74.82
2022-12-29T13:59:01.751Z,75.09
2022-12-29T14:01:36.996Z,74.93
2022-12-29T14:04:15.578Z,74.82
2022-12-29T14:06:50.331Z,74.65
2022-12-29T14:09:35.597Z,74.74
2022-12-29T14:12:28.739Z,74.52
2022-12-29T14:15:13.253Z,74.77
2022-12-29T14:18:06.687Z,74.63
2022-12-29T14:20:40.005Z,74.45
2022-12-29T14:23:14.965Z,74.60
2022-12-29T14:26:04.688Z,74.88
2022-12-29T14:28:39.878Z,74.69
2022-12-29T14:31:21.584Z,74.42
2022-12-29T14:34:14.801Z,74.66
2022-12-29T14:37:02.426Z,74.31
2022-12-29T14:39:44.357Z,74.33
2022-12-29T14:42:19.589Z,74.19
2022-12-29T14:45:11.869Z,74.17
2022-12-29T14:47:47.150Z,73.91
2022-12-29T14:50:23.556Z,74.07
2022-12-29T14:53:04.243Z,74.03
2022-12-29T14:55:44.899Z,74.29
2022-12-29T14:58:23.361Z,74.13
2022-12-29T15:00:57.350Z,74.01
2022-12-29T15:03:35.743Z,74.07
2022-12-29T15:06:17.174Z,74.14
2022-12-29T15:09:07.289Z,74.09
2022-12-29T15:11:44.728Z,74.15
2022-12-29T15:14:38.755Z,74.26
2022-12-29T15:17:24.984Z,74.38
2022-12-29T15:19:59.025Z,74.23
2022-12-29T15:22:33.240Z,74.36
2022-12-29T15:25:05.858Z,74.33
2022-12-29T15:27:37.761Z,74.40
2022-12-29T15:30:17.858Z,74.54
2022-12-29T15:32:48.644Z,74.74
2022-12-29T15:35:38.603Z,74.69
2022-12-29T15:38:23.498Z,74.65
2022-12-29T15:40:59.335Z,74.54
2022-12-29T15:43:47.117Z,74.43
2022-12-29T15:46:19.363Z,74.85
2022-12-29T15:48:51.623Z,74.86
2022-12-29T15:51:29.802Z,75.03
2022-12-29T15:54:02.681Z,75.23
2022-12-29T15:56:35.755Z,75.08
2022-12-29T15:59:09.278Z,75.47
2022-12-29T16:01:41.580Z,75.33
2022-12-29T16:04:14.047Z,75.26
2022-12-29T16:06:49.002Z,75.52
2022-12-29T16:09:24.034Z,75.71
2022-12-29T16:11:58.932Z,75.47
2022-12-29T16:14:46.144Z,75.40
2022-12-29T16:17:21.406Z,75.60
2022-12-29T16:19:58.886Z,75.50
2022-12-29T16:22:35.456Z,75.92
2022-12-29T16:25:10.555Z,75.62
2022-12-29T16:27:44.994Z,75.56
2022-12-29T16:30:33.548Z,75.47
2022-12-29T16:33:07.434Z,75.71
2022-12-29T16:35:47.709Z,75.89
2022-12-29T16:38:25.624Z,76.15
2022-12-29T16:41:00.075Z,75.85
2022-12-29T16:43:35.727Z,75.97
2022-12-29T16:46:14.202Z,76.14
2022-12-29T16:48:55.147Z,75.93
2022-12-29T16:51:36.098Z,76.04
2022-12-29T16:54:08.493Z,76.05
2022-12-29T16:56:43.485Z,75.93
2022-12-29T16:59:36.372Z,76.30
2022-12-29T17:02:17.612Z,76.15
2022-12-29T17:04:51.636Z,76.02
2022-12-29T17:07:26.445Z,76.18
2022-12-29T17:09:58.743Z,76.25
2022-12-29T17:12:32.004Z,76.24
2022-12-29T17:15:13.857Z,76.24
2022-12-29T17:17:49.315Z,76.17
2022-12-29T17:20:27.519Z,75.89
2022-12-29T17:23:01.090Z,76.02
2022-12-29T17:25:36.392Z,76.07
2022-12-29T17:28:21.352Z,76.44
2022-12-29T17:30:57.217Z,76.35
2022-12-29T17:33:31.022Z,76.62
2022-12-29T17:36:03.168Z,77.10
2022-12-29T17:38:37.835Z,76.65
2022-12-29T17:41:16.640Z,76.52
2022-12-29T17:43:49.464Z,76.70
2022-12-29T17:46:22.029Z,76.71
2022-12-29T17:48:54.350Z,76.81
2022-12-29T17:51:26.655Z,76.74
2022-12-29T17:53:59.218Z,76.76
2022-12-29T17:56:31.837Z,76.99
2022-12-29T17:59:04.582Z,77.25
2022-12-29T18:01:41.008Z,77.20
2022-12-29T18:04:13.802Z,77.06
2022-12-29T18:06:47.444Z,77.20
2022-12-29T18:09:21.330Z,77.21
2022-12-29T18:12:05.741Z,77.16
2022-12-29T18:14:37.997Z,77.06
2022-12-29T18:17:14.441Z,77.02
2022-12-29T18:19:46.661Z,77.35
2022-12-29T18:22:18.765Z,77.09
2022-12-29T18:24:51.150Z,77.19
2022-12-29T18:27:23.260Z,77.15
2022-12-29T18:29:55.537Z,77.20
2022-12-29T18:32:28.542Z,77.20
2022-12-29T18:35:01.104Z,77.31
2022-12-29T18:37:33.457Z,77.44
2022-12-29T18:40:05.946Z,76.99
2022-12-29T18:42:38.267Z,77.24
2022-12-29T18:45:24.325Z,77.25
2022-12-29T18:47:56.255Z,77.08
2022-12-29T18:50:29.532Z,76.99
2022-12-29T18:53:04.215Z,77.00
2022-12-29T18:55:36.332Z,76.93
2022-12-29T18:58:08.477Z,77.07
2022-12-29T19:00:41.104Z,76.81
2022-12-29T19:03:15.727Z,76.77
2022-12-29T19:05:49.337Z,76.95
2022-12-29T19:08:21.360Z,76.44
2022-12-29T19:10:53.589Z,76.42
2022-12-29T19:13:27.424Z,76.47
2022-12-29T19:16:00.263Z,76.47
2022-12-29T19:18:43.565Z,76.77
2022-12-29T19:21:07.164Z,76.42
2022-12-29T19:23:39.457Z,76.57
2022-12-29T19:29:02.219Z,76.82
2022-12-29T19:31:34.880Z,76.59
2022-12-29T19:34:07.107Z,76.27
2022-12-29T19:36:39.410Z,76.31
2022-12-29T19:39:12.791Z,76.25
2022-12-29T19:41:45.124Z,76.60
2022-12-29T19:44:17.450Z,76.43
2022-12-29T19:46:49.736Z,76.76
2022-12-29T19:49:22.063Z,76.02
2022-12-29T19:51:54.130Z,76.57
2022-12-29T19:54:26.193Z,76.88
2022-12-29T19:56:58.193Z,76.84
2022-12-29T19:59:30.235Z,76.88
2022-12-29T20:02:02.737Z,77.17
2022-12-29T20:04:35.202Z,77.43
2022-12-29T20:07:07.259Z,77.01
2022-12-29T20:09:39.181Z,77.23
2022-12-29T20:12:11.901Z,77.25
2022-12-29T20:14:45.151Z,77.36
2022-12-29T20:17:32.686Z,77.06
2022-12-29T20:19:53.043Z,77.46
2022-12-29T20:22:25.376Z,77.52
2022-12-29T20:25:25.979Z,77.43
2022-12-29T20:27:31.852Z,77.24
2022-12-29T20:30:04.345Z,77.27
2022-12-29T20:32:36.490Z,77.25
2022-12-29T20:35:09.457Z,77.44
2022-12-29T20:37:42.000Z,77.25
2022-12-29T20:40:16.219Z,77.23
2022-12-29T20:42:48.666Z,77.22
2022-12-29T20:45:20.905Z,76.86
2022-12-29T20:47:53.228Z,77.06
2022-12-29T20:50:25.967Z,77.47
2022-12-29T20:52:58.267Z,77.29
2022-12-29T20:55:31.566Z,77.24
2022-12-29T21:00:37.425Z,77.34
2022-12-29T21:03:09.806Z,77.67
2022-12-29T21:05:42.333Z,77.68
2022-12-29T21:08:14.407Z,77.78
2022-12-29T21:10:50.774Z,77.86
2022-12-29T21:13:22.737Z,77.89
2022-12-29T21:16:03.254Z,78.28
2022-12-29T21:18:35.509Z,78.27
2022-12-29T21:21:10.864Z,78.54
2022-12-29T21:23:43.016Z,78.25
2022-12-29T21:26:17.270Z,78.31
2022-12-29T21:28:49.549Z,78.72
2022-12-29T21:31:33.639Z,78.75
2022-12-29T21:34:07.007Z,78.67
2022-12-29T21:36:39.117Z,79.02
2022-12-29T21:39:12.875Z,79.05
2022-12-29T21:41:45.361Z,79.20
2022-12-29T21:44:35.487Z,78.98
2022-12-29T21:47:07.692Z,78.93
2022-12-29T21:49:39.725Z,78.67
2022-12-29T21:52:12.013Z,78.69
2022-12-29T21:55:02.117Z,78.50
2022-12-29T21:57:51.951Z,78.56
2022-12-29T22:00:41.621Z,78.25
2022-12-29T22:03:32.112Z,78.46
2022-12-29T22:06:22.283Z,78.74
2022-12-29T22:09:12.005Z,78.96
2022-12-29T22:12:01.657Z,79.00
2022-12-29T22:14:33.660Z,79.22
2022-12-29T22:17:10.616Z,79.02
2022-12-29T22:19:39.641Z,78.76
2022-12-29T22:22:11.647Z,78.89
2022-12-29T22:24:43.647Z,79.11
2022-12-29T22:27:16.026Z,79.23
2022-12-29T22:29:48.449Z,79.32
2022-12-29T22:32:20.527Z,79.11
2022-12-29T22:34:52.478Z,79.26
2022-12-29T22:37:24.490Z,79.41
2022-12-29T22:39:56.521Z,79.41
2022-12-29T22:42:28.674Z,79.27
2022-12-29T22:45:00.993Z,79.04
2022-12-29T22:47:33.599Z,79.19
2022-12-29T22:50:06.642Z,78.84
2022-12-29T22:52:38.606Z,78.80
2022-12-29T22:55:11.098Z,78.96
2022-12-29T22:57:43.155Z,78.73
2022-12-29T23:00:15.567Z,78.82
2022-12-29T23:02:47.719Z,78.79
2022-12-29T23:05:20.046Z,78.82
2022-12-29T23:07:52.244Z,78.57
2022-12-29T23:10:24.164Z,78.45
2022-12-29T23:12:56.382Z,78.48
2022-12-29T23:15:28.381Z,78.56
2022-12-29T23:18:00.389Z,78.36
2022-12-29T23:20:32.422Z,78.49
2022-12-29T23:23:04.676Z,78.21
2022-12-29T23:25:40.532Z,78.19
2022-12-29T23:28:12.582Z,78.60
2022-12-29T23:30:44.782Z,78.09
2022-12-29T23:33:16.868Z,78.19
2022-12-29T23:35:48.776Z,78.46
2022-12-29T23:38:20.749Z,78.22
2022-12-29T23:40:52.612Z,78.39
2022-12-29T23:43:24.692Z,78.31
2022-12-29T23:45:56.710Z,78.28
2022-12-29T23:48:28.553Z,78.31
2022-12-29T23:51:00.755Z,78.25
2022-12-29T23:53:33.765Z,78.15
2022-12-29T23:56:06.955Z,78.13
2022-12-29T23:58:39.432Z,78.21
